Buoy 43533

sailwx.info

Track history (hours):
 
Tides and Currents Weather Stations Pressure Air Temp Water Temp Dewpoint Dewpoint Depression Visibility Wind Speed Wind Dir Waves Ship Positions

Drifting buoy 43533

Last reported at 2014-Sep-30 11:00 UTC. Time now 2014-Sep-30 13:51 UTC.
Position N 18°10' W 106°05'.

Length 24 m.

Type: Fishing. MMSI: 412466549.

Water temperature 27.6 ° C

Date/timePositionNaut miles runAvg speedWind from/ knotsBaromVisibWave heightAir tempDewpointWater temp
2014-Sep-30 11:00N 18°10' W 106°05'0 0.0 27.6
2014-Sep-30 10:00N 18°10' W 106°05'1 0.9 27.0
2014-Sep-30 09:00N 18°10' W 106°05'2 0.9 27.5
2014-Sep-30 07:00N 18°08' W 106°04'0 0.1 28.3
2014-Sep-30 05:00N 18°08' W 106°04'1 0.5 28.4
2014-Sep-30 03:00N 18°07' W 106°04'0 0.0 28.5
2014-Sep-30 02:00N 18°07' W 106°04'3 1.7 28.5
2014-Sep-30 00:00N 18°04' W 106°04'1 0.7 28.5
2014-Sep-29 23:00N 18°03' W 106°04'3 2.8 28.5
2014-Sep-29 22:00N 18°01' W 106°02'0 0.0 28.5
2014-Sep-29 21:00N 18°01' W 106°02'0 0.1 28.5
2014-Sep-29 20:00N 18°01' W 106°02'5 2.3 28.5
2014-Sep-29 18:00N 17°57' W 105°59'1 0.7 28.5
2014-Sep-29 17:00N 17°57' W 105°59'1 0.5 28.5
2014-Sep-29 16:00N 17°57' W 105°60'3 3.5 28.5
2014-Sep-29 15:00N 17°55' W 105°57'0 0.0 28.5
2014-Sep-29 14:00N 17°55' W 105°57'2 1.0 28.5
2014-Sep-29 12:00N 17°54' W 105°55'2 1.7 28.5
2014-Sep-29 11:00N 17°53' W 105°53'0 0.0 28.5
2014-Sep-29 10:00N 17°53' W 105°53'2 1.8 28.5
2014-Sep-29 09:00N 17°52' W 105°52'2 1.9 28.5
2014-Sep-29 08:00N 17°51' W 105°50'0 0.0 28.5
2014-Sep-29 07:00N 17°51' W 105°50'2 0.6 28.5
2014-Sep-29 04:00N 17°50' W 105°49'2 0.5 28.5
2014-Sep-28 23:00N 17°48' W 105°46'0 0.0 28.6
2014-Sep-28 22:00N 17°48' W 105°46'0 0.2 28.6
2014-Sep-28 21:00N 17°49' W 105°47'4 1.8 28.6
2014-Sep-28 19:00N 17°45' W 105°45'1 0.7 28.5
2014-Sep-28 17:00N 17°44' W 105°44'3 3.4 28.5
2014-Sep-28 16:00N 17°41' W 105°43'1 0.2 28.5
2014-Sep-28 13:00N 17°41' W 105°42'3 2.7 28.5
2014-Sep-28 12:00N 17°38' W 105°41'2 0.9 28.5
2014-Sep-28 10:00N 17°37' W 105°40'0 0.0 28.6
2014-Sep-28 09:00N 17°37' W 105°40'4 3.9 28.6
2014-Sep-28 08:00N 17°34' W 105°37'0 0.0 28.6
2014-Sep-28 07:00N 17°34' W 105°37'0 0.0 28.6
2014-Sep-28 05:00N 17°34' W 105°37'4 1.9 28.6
2014-Sep-28 03:00N 17°31' W 105°34'3 1.3 28.7
2014-Sep-28 01:00N 17°30' W 105°32'1 0.7 28.7
2014-Sep-28 00:00N 17°30' W 105°32'1 1.4 28.7
2014-Sep-27 23:00N 17°29' W 105°31'3 1.5 28.7
2014-Sep-27 21:00N 17°28' W 105°28'1 0.7 28.7
2014-Sep-27 19:00N 17°28' W 105°27'5 1.8 28.6
2014-Sep-27 16:00N 17°27' W 105°21'1 0.9 28.4
2014-Sep-27 15:00N 17°27' W 105°20'2 1.8 28.4
2014-Sep-27 14:00N 17°26' W 105°19'2 2.0 28.4
2014-Sep-27 13:00N 17°26' W 105°17'1 0.4 28.4
2014-Sep-27 11:00N 17°26' W 105°16'1 1.4 28.4
2014-Sep-27 10:00N 17°25' W 105°14'1 0.7 28.4
2014-Sep-27 08:00N 17°25' W 105°13'1 0.2 28.5
2014-Sep-27 02:00N 17°25' W 105°12'1 1.4 28.8
2014-Sep-27 01:00N 17°24' W 105°11'3 0.9 28.9
2014-Sep-26 22:00N 17°22' W 105°09'5 1.0 29.1
2014-Sep-26 17:00N 17°17' W 105°08'1 1.4 28.7
2014-Sep-26 16:00N 17°16' W 105°07'0 0.0 28.5
2014-Sep-26 15:00N 17°16' W 105°07'3 3.1 28.4
2014-Sep-26 14:00N 17°14' W 105°06'0 0.4 28.4
2014-Sep-26 13:00N 17°13' W 105°06'3 2.6 28.4
2014-Sep-26 12:00N 17°12' W 105°04'1 1.3 28.4
2014-Sep-26 11:00N 17°11' W 105°03'1 0.9 28.4
2014-Sep-26 10:00N 17°10' W 105°02'8 4.2 28.4
2014-Sep-26 08:00N 17°05' W 104°55'0 0.0 28.4
2014-Sep-26 05:00N 17°05' W 104°55'1 1.0 28.5
2014-Sep-26 04:00N 17°04' W 104°55'5 1.8 28.5
2014-Sep-26 01:00N 17°03' W 104°49'2 0.9 28.6
2014-Sep-25 23:00N 17°03' W 104°47'3 1.2 28.7
2014-Sep-25 20:00N 17°03' W 104°44'2 0.7 28.9
2014-Sep-25 17:00N 17°03' W 104°41'0 0.3 28.5
2014-Sep-25 16:00N 17°04' W 104°41'0 0.0 28.4
2014-Sep-25 15:00N 17°04' W 104°41'0 0.2 28.3
2014-Sep-25 12:00N 17°03' W 104°41'1 0.5 28.3
2014-Sep-25 11:00N 17°03' W 104°41'1 1.5 28.3
2014-Sep-25 10:00N 17°01' W 104°41'5 2.4 28.3
2014-Sep-25 08:00N 16°57' W 104°41'5 4.9 28.3
2014-Sep-25 07:00N 17°02' W 104°42'8 2.1 28.3
2014-Sep-25 03:00N 16°53' W 104°41'0 0.0 28.3
2014-Sep-25 02:00N 16°53' W 104°41'3 1.3 28.4
2014-Sep-25 00:00N 16°51' W 104°40'4 3.7 28.4
2014-Sep-24 23:00N 16°47' W 104°39'0 0.0 28.4
2014-Sep-24 22:00N 16°47' W 104°39'9 4.5 28.4
2014-Sep-24 20:00N 16°40' W 104°34'5 5.3 28.4
2014-Sep-24 19:00N 16°44' W 104°38'5 2.5 28.4
2014-Sep-24 17:00N 16°40' W 104°34'2 1.9 28.3
2014-Sep-24 16:00N 16°39' W 104°32'5 4.8 28.3
2014-Sep-24 15:00N 16°36' W 104°28'3 1.1 28.3
2014-Sep-24 12:00N 16°35' W 104°25'1 0.9 28.3
2014-Sep-24 11:00N 16°34' W 104°24'3 2.9 28.4
2014-Sep-24 10:00N 16°34' W 104°21'0 0.1 28.4
2014-Sep-24 09:00N 16°34' W 104°21'4 4.1 28.4
2014-Sep-24 08:00N 16°33' W 104°17'1 0.2 28.4
2014-Sep-24 04:00N 16°33' W 104°17'0 0.2 28.5
2014-Sep-24 03:00N 16°33' W 104°16'0 0.0 28.5
2014-Sep-24 02:00N 16°33' W 104°16'2 0.9 28.6
2014-Sep-24 00:00N 16°33' W 104°14'0 0.4 28.6
2014-Sep-23 23:00N 16°33' W 104°14'2 1.6 28.7
2014-Sep-23 22:00N 16°33' W 104°12'0 0.0 28.6
2014-Sep-23 21:00N 16°33' W 104°12'3 2.5 28.6
2014-Sep-23 20:00N 16°31' W 104°10'0 0.0 28.7
2014-Sep-23 17:00N 16°31' W 104°10'3 0.8 28.5
2014-Sep-23 13:00N 16°29' W 104°08'1 0.6 28.4
2014-Sep-23 12:00N 16°29' W 104°08'2 2.4 28.4
2014-Sep-23 11:00N 16°27' W 104°06'0 0.0 28.4
2014-Sep-23 09:00N 16°27' W 104°06'3 0.8 28.5
2014-Sep-23 05:00N 16°25' W 104°03'1 0.7 28.5
2014-Sep-23 03:00N 16°24' W 104°03'4 3.7 28.5
2014-Sep-23 02:00N 16°22' W 103°59'0 0.0 28.6
2014-Sep-23 01:00N 16°22' W 103°59'2 2.4 28.7
2014-Sep-23 00:00N 16°21' W 103°57'2 1.1 28.8
2014-Sep-22 22:00N 16°19' W 103°56'0 0.0 29.0
2014-Sep-22 21:00N 16°19' W 103°56'0 0.0 29.0
2014-Sep-22 20:00N 16°19' W 103°56'4 1.5 28.8
2014-Sep-22 17:00N 16°19' W 103°51'0 0.4 28.4
2014-Sep-22 16:00N 16°19' W 103°51'2 1.8 28.4
2014-Sep-22 15:00N 16°20' W 103°49'2 1.7 28.3
2014-Sep-22 14:00N 16°19' W 103°48'0 0.2 28.3
2014-Sep-22 13:00N 16°19' W 103°48'1 1.2 28.3
2014-Sep-22 12:00N 16°19' W 103°47'1 1.4 28.3
2014-Sep-22 11:00N 16°18' W 103°45'2 1.1 28.3
2014-Sep-22 09:00N 16°17' W 103°43'2 2.3 28.4
2014-Sep-22 08:00N 16°18' W 103°45'2 0.6 28.4
2014-Sep-22 04:00N 16°17' W 103°43'1 1.3 28.6
2014-Sep-22 03:00N 16°16' W 103°42'1 0.6 28.6
2014-Sep-22 01:00N 16°15' W 103°41'0 0.0 28.7
2014-Sep-22 00:00N 16°15' W 103°41'1 1.0 28.7
2014-Sep-21 23:00N 16°14' W 103°42'0 0.0 28.8
2014-Sep-21 22:00N 16°14' W 103°42'2 1.0 28.9
2014-Sep-21 20:00N 16°13' W 103°40'3 1.2 29.0
2014-Sep-21 17:00N 16°10' W 103°39'0 0.3 28.5
2014-Sep-21 16:00N 16°09' W 103°39'0 0.0 28.3
2014-Sep-21 15:00N 16°09' W 103°39'3 1.4 28.3
2014-Sep-21 13:00N 16°06' W 103°38'2 1.6 28.3
2014-Sep-21 12:00N 16°05' W 103°38'0 0.1 28.2
2014-Sep-21 11:00N 16°05' W 103°38'4 2.1 28.3
2014-Sep-21 09:00N 16°01' W 103°35'2 1.2 28.3
2014-Sep-21 07:00N 16°00' W 103°33'0 0.0 28.3
2014-Sep-21 05:00N 16°00' W 103°33'1 0.8 28.4
2014-Sep-21 04:00N 15°59' W 103°33'1 0.8 28.4
2014-Sep-21 03:00N 15°59' W 103°32'0 0.3 28.4
2014-Sep-21 02:00N 15°59' W 103°32'2 1.8 28.5
2014-Sep-21 01:00N 15°57' W 103°31'1 0.8 28.6
2014-Sep-21 00:00N 15°56' W 103°31'3 2.7 28.6
2014-Sep-20 23:00N 15°55' W 103°28'0 0.0 28.7
2014-Sep-20 22:00N 15°55' W 103°28'0 0.0 28.8
2014-Sep-20 21:00N 15°55' W 103°28'0 0.1 28.7
2014-Sep-20 20:00N 15°55' W 103°28'3 1.1 28.7
2014-Sep-20 17:00N 15°53' W 103°26'0 0.0 28.3
2014-Sep-20 16:00N 15°53' W 103°26'3 0.6 28.2
2014-Sep-20 11:00N 15°51' W 103°24'   28.2
Track history (hours):
 
Tides and Currents Weather Stations Pressure Air Temp Water Temp Dewpoint Dewpoint Depression Visibility Wind Speed Wind Dir Waves Ship Positions

Drifting buoy 43533

Last reported at 2014-Sep-30 11:00 UTC. Time now 2014-Sep-30 13:51 UTC.
Position N 18°10' W 106°05'.

Length 24 m.

Type: Fishing. MMSI: 412466549.

Water temperature 27.6 ° C

Date/timePositionNaut miles runAvg speedWind from/ knotsBaromVisibWave heightAir tempDewpointWater temp
2014-Sep-30 11:00N 18°10' W 106°05'0 0.0 27.6
2014-Sep-30 10:00N 18°10' W 106°05'1 0.9 27.0
2014-Sep-30 09:00N 18°10' W 106°05'2 0.9 27.5
2014-Sep-30 07:00N 18°08' W 106°04'0 0.1 28.3
2014-Sep-30 05:00N 18°08' W 106°04'1 0.5 28.4
2014-Sep-30 03:00N 18°07' W 106°04'0 0.0 28.5
2014-Sep-30 02:00N 18°07' W 106°04'3 1.7 28.5
2014-Sep-30 00:00N 18°04' W 106°04'1 0.7 28.5
2014-Sep-29 23:00N 18°03' W 106°04'3 2.8 28.5
2014-Sep-29 22:00N 18°01' W 106°02'0 0.0 28.5
2014-Sep-29 21:00N 18°01' W 106°02'0 0.1 28.5
2014-Sep-29 20:00N 18°01' W 106°02'5 2.3 28.5
2014-Sep-29 18:00N 17°57' W 105°59'1 0.7 28.5
2014-Sep-29 17:00N 17°57' W 105°59'1 0.5 28.5
2014-Sep-29 16:00N 17°57' W 105°60'3 3.5 28.5
2014-Sep-29 15:00N 17°55' W 105°57'0 0.0 28.5
2014-Sep-29 14:00N 17°55' W 105°57'2 1.0 28.5
2014-Sep-29 12:00N 17°54' W 105°55'2 1.7 28.5
2014-Sep-29 11:00N 17°53' W 105°53'0 0.0 28.5
2014-Sep-29 10:00N 17°53' W 105°53'2 1.8 28.5
2014-Sep-29 09:00N 17°52' W 105°52'2 1.9 28.5
2014-Sep-29 08:00N 17°51' W 105°50'0 0.0 28.5
2014-Sep-29 07:00N 17°51' W 105°50'2 0.6 28.5
2014-Sep-29 04:00N 17°50' W 105°49'2 0.5 28.5
2014-Sep-28 23:00N 17°48' W 105°46'0 0.0 28.6
2014-Sep-28 22:00N 17°48' W 105°46'0 0.2 28.6
2014-Sep-28 21:00N 17°49' W 105°47'4 1.8 28.6
2014-Sep-28 19:00N 17°45' W 105°45'1 0.7 28.5
2014-Sep-28 17:00N 17°44' W 105°44'3 3.4 28.5
2014-Sep-28 16:00N 17°41' W 105°43'1 0.2 28.5
2014-Sep-28 13:00N 17°41' W 105°42'3 2.7 28.5
2014-Sep-28 12:00N 17°38' W 105°41'2 0.9 28.5
2014-Sep-28 10:00N 17°37' W 105°40'0 0.0 28.6
2014-Sep-28 09:00N 17°37' W 105°40'4 3.9 28.6
2014-Sep-28 08:00N 17°34' W 105°37'0 0.0 28.6
2014-Sep-28 07:00N 17°34' W 105°37'0 0.0 28.6
2014-Sep-28 05:00N 17°34' W 105°37'4 1.9 28.6
2014-Sep-28 03:00N 17°31' W 105°34'3 1.3 28.7
2014-Sep-28 01:00N 17°30' W 105°32'1 0.7 28.7
2014-Sep-28 00:00N 17°30' W 105°32'1 1.4 28.7
2014-Sep-27 23:00N 17°29' W 105°31'3 1.5 28.7
2014-Sep-27 21:00N 17°28' W 105°28'1 0.7 28.7
2014-Sep-27 19:00N 17°28' W 105°27'5 1.8 28.6
2014-Sep-27 16:00N 17°27' W 105°21'1 0.9 28.4
2014-Sep-27 15:00N 17°27' W 105°20'2 1.8 28.4
2014-Sep-27 14:00N 17°26' W 105°19'2 2.0 28.4
2014-Sep-27 13:00N 17°26' W 105°17'1 0.4 28.4
2014-Sep-27 11:00N 17°26' W 105°16'1 1.4 28.4
2014-Sep-27 10:00N 17°25' W 105°14'1 0.7 28.4
2014-Sep-27 08:00N 17°25' W 105°13'1 0.2 28.5
2014-Sep-27 02:00N 17°25' W 105°12'1 1.4 28.8
2014-Sep-27 01:00N 17°24' W 105°11'3 0.9 28.9
2014-Sep-26 22:00N 17°22' W 105°09'5 1.0 29.1
2014-Sep-26 17:00N 17°17' W 105°08'1 1.4 28.7
2014-Sep-26 16:00N 17°16' W 105°07'0 0.0 28.5
2014-Sep-26 15:00N 17°16' W 105°07'3 3.1 28.4
2014-Sep-26 14:00N 17°14' W 105°06'0 0.4 28.4
2014-Sep-26 13:00N 17°13' W 105°06'3 2.6 28.4
2014-Sep-26 12:00N 17°12' W 105°04'1 1.3 28.4
2014-Sep-26 11:00N 17°11' W 105°03'1 0.9 28.4
2014-Sep-26 10:00N 17°10' W 105°02'8 4.2 28.4
2014-Sep-26 08:00N 17°05' W 104°55'0 0.0 28.4
2014-Sep-26 05:00N 17°05' W 104°55'1 1.0 28.5
2014-Sep-26 04:00N 17°04' W 104°55'5 1.8 28.5
2014-Sep-26 01:00N 17°03' W 104°49'2 0.9 28.6
2014-Sep-25 23:00N 17°03' W 104°47'3 1.2 28.7
2014-Sep-25 20:00N 17°03' W 104°44'2 0.7 28.9
2014-Sep-25 17:00N 17°03' W 104°41'0 0.3 28.5
2014-Sep-25 16:00N 17°04' W 104°41'0 0.0 28.4
2014-Sep-25 15:00N 17°04' W 104°41'0 0.2 28.3
2014-Sep-25 12:00N 17°03' W 104°41'1 0.5 28.3
2014-Sep-25 11:00N 17°03' W 104°41'1 1.5 28.3
2014-Sep-25 10:00N 17°01' W 104°41'5 2.4 28.3
2014-Sep-25 08:00N 16°57' W 104°41'5 4.9 28.3
2014-Sep-25 07:00N 17°02' W 104°42'8 2.1 28.3
2014-Sep-25 03:00N 16°53' W 104°41'0 0.0 28.3
2014-Sep-25 02:00N 16°53' W 104°41'3 1.3 28.4
2014-Sep-25 00:00N 16°51' W 104°40'4 3.7 28.4
2014-Sep-24 23:00N 16°47' W 104°39'0 0.0 28.4
2014-Sep-24 22:00N 16°47' W 104°39'9 4.5 28.4
2014-Sep-24 20:00N 16°40' W 104°34'5 5.3 28.4
2014-Sep-24 19:00N 16°44' W 104°38'5 2.5 28.4
2014-Sep-24 17:00N 16°40' W 104°34'2 1.9 28.3
2014-Sep-24 16:00N 16°39' W 104°32'5 4.8 28.3
2014-Sep-24 15:00N 16°36' W 104°28'3 1.1 28.3
2014-Sep-24 12:00N 16°35' W 104°25'1 0.9 28.3
2014-Sep-24 11:00N 16°34' W 104°24'3 2.9 28.4
2014-Sep-24 10:00N 16°34' W 104°21'0 0.1 28.4
2014-Sep-24 09:00N 16°34' W 104°21'4 4.1 28.4
2014-Sep-24 08:00N 16°33' W 104°17'1 0.2 28.4
2014-Sep-24 04:00N 16°33' W 104°17'0 0.2 28.5
2014-Sep-24 03:00N 16°33' W 104°16'0 0.0 28.5
2014-Sep-24 02:00N 16°33' W 104°16'2 0.9 28.6
2014-Sep-24 00:00N 16°33' W 104°14'0 0.4 28.6
2014-Sep-23 23:00N 16°33' W 104°14'2 1.6 28.7
2014-Sep-23 22:00N 16°33' W 104°12'0 0.0 28.6
2014-Sep-23 21:00N 16°33' W 104°12'3 2.5 28.6
2014-Sep-23 20:00N 16°31' W 104°10'0 0.0 28.7
2014-Sep-23 17:00N 16°31' W 104°10'3 0.8 28.5
2014-Sep-23 13:00N 16°29' W 104°08'1 0.6 28.4
2014-Sep-23 12:00N 16°29' W 104°08'2 2.4 28.4
2014-Sep-23 11:00N 16°27' W 104°06'0 0.0 28.4
2014-Sep-23 09:00N 16°27' W 104°06'3 0.8 28.5
2014-Sep-23 05:00N 16°25' W 104°03'1 0.7 28.5
2014-Sep-23 03:00N 16°24' W 104°03'4 3.7 28.5
2014-Sep-23 02:00N 16°22' W 103°59'0 0.0 28.6
2014-Sep-23 01:00N 16°22' W 103°59'2 2.4 28.7
2014-Sep-23 00:00N 16°21' W 103°57'2 1.1 28.8
2014-Sep-22 22:00N 16°19' W 103°56'0 0.0 29.0
2014-Sep-22 21:00N 16°19' W 103°56'0 0.0 29.0
2014-Sep-22 20:00N 16°19' W 103°56'4 1.5 28.8
2014-Sep-22 17:00N 16°19' W 103°51'0 0.4 28.4
2014-Sep-22 16:00N 16°19' W 103°51'2 1.8 28.4
2014-Sep-22 15:00N 16°20' W 103°49'2 1.7 28.3
2014-Sep-22 14:00N 16°19' W 103°48'0 0.2 28.3
2014-Sep-22 13:00N 16°19' W 103°48'1 1.2 28.3
2014-Sep-22 12:00N 16°19' W 103°47'1 1.4 28.3
2014-Sep-22 11:00N 16°18' W 103°45'2 1.1 28.3
2014-Sep-22 09:00N 16°17' W 103°43'2 2.3 28.4
2014-Sep-22 08:00N 16°18' W 103°45'2 0.6 28.4
2014-Sep-22 04:00N 16°17' W 103°43'1 1.3 28.6
2014-Sep-22 03:00N 16°16' W 103°42'1 0.6 28.6
2014-Sep-22 01:00N 16°15' W 103°41'0 0.0 28.7
2014-Sep-22 00:00N 16°15' W 103°41'1 1.0 28.7
2014-Sep-21 23:00N 16°14' W 103°42'0 0.0 28.8
2014-Sep-21 22:00N 16°14' W 103°42'2 1.0 28.9
2014-Sep-21 20:00N 16°13' W 103°40'3 1.2 29.0
2014-Sep-21 17:00N 16°10' W 103°39'0 0.3 28.5
2014-Sep-21 16:00N 16°09' W 103°39'0 0.0 28.3
2014-Sep-21 15:00N 16°09' W 103°39'3 1.4 28.3
2014-Sep-21 13:00N 16°06' W 103°38'2 1.6 28.3
2014-Sep-21 12:00N 16°05' W 103°38'0 0.1 28.2
2014-Sep-21 11:00N 16°05' W 103°38'4 2.1 28.3
2014-Sep-21 09:00N 16°01' W 103°35'2 1.2 28.3
2014-Sep-21 07:00N 16°00' W 103°33'0 0.0 28.3
2014-Sep-21 05:00N 16°00' W 103°33'1 0.8 28.4
2014-Sep-21 04:00N 15°59' W 103°33'1 0.8 28.4
2014-Sep-21 03:00N 15°59' W 103°32'0 0.3 28.4
2014-Sep-21 02:00N 15°59' W 103°32'2 1.8 28.5
2014-Sep-21 01:00N 15°57' W 103°31'1 0.8 28.6
2014-Sep-21 00:00N 15°56' W 103°31'3 2.7 28.6
2014-Sep-20 23:00N 15°55' W 103°28'0 0.0 28.7
2014-Sep-20 22:00N 15°55' W 103°28'0 0.0 28.8
2014-Sep-20 21:00N 15°55' W 103°28'0 0.1 28.7
2014-Sep-20 20:00N 15°55' W 103°28'3 1.1 28.7
2014-Sep-20 17:00N 15°53' W 103°26'0 0.0 28.3
2014-Sep-20 16:00N 15°53' W 103°26'3 0.6 28.2
2014-Sep-20 11:00N 15°51' W 103°24'   28.2

Dump ship's entire track history